createdAt,value
2018-09-18T00:00:58.094Z,977.74
2018-09-18T00:01:58.330Z,977.75
2018-09-18T00:02:58.571Z,977.78
2018-09-18T00:03:58.810Z,977.78
2018-09-18T00:04:59.050Z,977.81
2018-09-18T00:05:59.291Z,977.79
2018-09-18T00:06:59.531Z,977.80
2018-09-18T00:07:59.772Z,977.82
2018-09-18T00:09:00.009Z,977.79
2018-09-18T00:10:00.248Z,977.82
2018-09-18T00:11:00.488Z,977.83
2018-09-18T00:12:00.736Z,977.81
2018-09-18T00:13:00.966Z,977.78
2018-09-18T00:14:01.208Z,977.75
2018-09-18T00:15:01.449Z,977.79
2018-09-18T00:16:01.690Z,977.73
2018-09-18T00:17:01.924Z,977.74
2018-09-18T00:18:02.162Z,977.73
2018-09-18T00:19:02.402Z,977.72
2018-09-18T00:20:02.643Z,977.73
2018-09-18T00:21:02.882Z,977.71
2018-09-18T00:22:03.120Z,977.73
2018-09-18T00:23:03.361Z,977.68
2018-09-18T00:24:03.600Z,977.68
2018-09-18T00:25:03.841Z,977.65
2018-09-18T00:26:04.079Z,977.64
2018-09-18T00:27:04.320Z,977.65
2018-09-18T00:28:04.561Z,977.64
2018-09-18T00:29:04.799Z,977.62
2018-09-18T00:30:05.037Z,977.57
2018-09-18T00:31:05.278Z,977.60
2018-09-18T00:32:05.517Z,977.60
2018-09-18T00:33:05.758Z,977.60
2018-09-18T00:34:05.997Z,977.56
2018-09-18T00:35:06.237Z,977.57
2018-09-18T00:36:06.475Z,977.55
2018-09-18T00:37:06.719Z,977.57
2018-09-18T00:38:06.957Z,977.57
2018-09-18T00:39:07.202Z,977.54
2018-09-18T00:40:07.439Z,977.52
2018-09-18T00:41:07.679Z,977.53
2018-09-18T00:42:07.917Z,977.52
2018-09-18T00:43:08.159Z,977.52
2018-09-18T00:44:08.399Z,977.47
2018-09-18T00:45:08.638Z,977.48
2018-09-18T00:46:08.876Z,977.43
2018-09-18T00:47:09.115Z,977.42
2018-09-18T00:48:09.355Z,977.44
2018-09-18T00:49:09.595Z,977.41
2018-09-18T00:50:09.833Z,977.44
2018-09-18T00:51:10.074Z,977.40
2018-09-18T00:52:10.314Z,977.43
2018-09-18T00:53:10.553Z,977.39
2018-09-18T00:54:10.792Z,977.47
2018-09-18T00:55:11.031Z,977.40
2018-09-18T00:56:11.270Z,977.40
2018-09-18T00:57:11.510Z,977.35
2018-09-18T00:58:11.749Z,977.39
2018-09-18T00:59:11.989Z,977.38
2018-09-18T01:00:12.232Z,977.37
2018-09-18T01:01:12.468Z,977.35
2018-09-18T01:02:12.706Z,977.36
2018-09-18T01:03:12.946Z,977.37
2018-09-18T01:04:13.185Z,977.38
2018-09-18T01:05:13.424Z,977.34
2018-09-18T01:06:13.663Z,977.33
2018-09-18T01:07:13.902Z,977.36
2018-09-18T01:08:14.142Z,977.36
2018-09-18T01:09:14.382Z,977.34
2018-09-18T01:10:14.621Z,977.33
2018-09-18T01:11:14.860Z,977.35
2018-09-18T01:12:15.103Z,977.33
2018-09-18T01:13:15.340Z,977.32
2018-09-18T01:14:15.591Z,977.32
2018-09-18T01:15:15.816Z,977.31
2018-09-18T01:16:16.100Z,977.30
2018-09-18T01:17:16.294Z,977.29
2018-09-18T01:18:16.532Z,977.34
2018-09-18T01:19:16.772Z,977.30
2018-09-18T01:20:17.009Z,977.32
2018-09-18T01:21:17.249Z,977.29
2018-09-18T01:22:17.488Z,977.31
2018-09-18T01:23:17.726Z,977.31
2018-09-18T01:24:17.968Z,977.31
2018-09-18T01:25:18.206Z,977.32
2018-09-18T01:26:18.445Z,977.29
2018-09-18T01:27:18.682Z,977.32
2018-09-18T01:28:18.921Z,977.33
2018-09-18T01:29:19.161Z,977.30
2018-09-18T01:30:19.402Z,977.30
2018-09-18T01:31:19.640Z,977.30
2018-09-18T01:32:19.878Z,977.29
2018-09-18T01:33:20.117Z,977.28
2018-09-18T01:34:20.355Z,977.28
2018-09-18T01:35:20.594Z,977.25
2018-09-18T01:36:20.833Z,977.26
2018-09-18T01:37:21.071Z,977.27
2018-09-18T01:38:21.311Z,977.26
2018-09-18T01:39:21.550Z,977.23
2018-09-18T01:40:21.789Z,977.25
2018-09-18T01:41:22.026Z,977.26
2018-09-18T01:42:22.264Z,977.23
2018-09-18T01:43:22.502Z,977.26
2018-09-18T01:44:22.742Z,977.19
2018-09-18T01:45:22.981Z,977.20
2018-09-18T01:46:23.220Z,977.24
2018-09-18T01:47:23.459Z,977.22
2018-09-18T01:48:23.696Z,977.23
2018-09-18T01:49:23.935Z,977.22
2018-09-18T01:50:24.174Z,977.18
2018-09-18T01:51:24.414Z,977.22
2018-09-18T01:52:24.650Z,977.19
2018-09-18T01:53:24.890Z,977.19
2018-09-18T01:54:25.130Z,977.14
2018-09-18T01:55:25.369Z,977.17
2018-09-18T01:56:25.611Z,977.18
2018-09-18T01:57:25.845Z,977.13
2018-09-18T01:58:26.086Z,977.16
2018-09-18T01:59:26.326Z,977.17
2018-09-18T02:00:26.563Z,977.15
2018-09-18T02:01:26.802Z,977.16
2018-09-18T02:02:27.040Z,977.15
2018-09-18T02:03:27.279Z,977.20
2018-09-18T02:04:27.519Z,977.17
2018-09-18T02:05:27.761Z,977.18
2018-09-18T02:06:27.996Z,977.16
2018-09-18T02:07:28.239Z,977.18
2018-09-18T02:08:28.474Z,977.18
2018-09-18T02:09:28.714Z,977.14
2018-09-18T02:10:28.951Z,977.17
2018-09-18T02:11:29.189Z,977.24
2018-09-18T02:12:29.428Z,977.18
2018-09-18T02:13:29.666Z,977.20
2018-09-18T02:14:29.905Z,977.15
2018-09-18T02:15:30.143Z,977.16
2018-09-18T02:16:30.382Z,977.15
2018-09-18T02:17:30.620Z,977.16
2018-09-18T02:18:30.858Z,977.14
2018-09-18T02:19:31.098Z,977.12
2018-09-18T02:20:31.337Z,977.16
2018-09-18T02:21:31.577Z,977.16
2018-09-18T02:22:31.816Z,977.14
2018-09-18T02:23:32.055Z,977.12
2018-09-18T02:24:32.293Z,977.14
2018-09-18T02:25:32.531Z,977.13
2018-09-18T02:26:32.770Z,977.11
2018-09-18T02:27:33.009Z,977.15
2018-09-18T02:28:33.246Z,977.09
2018-09-18T02:29:33.484Z,977.10
2018-09-18T02:30:33.726Z,977.12
2018-09-18T02:31:33.965Z,977.11
2018-09-18T02:32:34.203Z,977.13
2018-09-18T02:33:34.441Z,977.14
2018-09-18T02:34:34.679Z,977.10
2018-09-18T02:35:34.917Z,977.13
2018-09-18T02:36:35.155Z,977.13
2018-09-18T02:37:35.393Z,977.04
2018-09-18T02:38:35.631Z,977.05
2018-09-18T02:39:35.868Z,977.03
2018-09-18T02:40:36.106Z,976.98
2018-09-18T02:41:36.345Z,976.99
2018-09-18T02:42:36.581Z,977.02
2018-09-18T02:43:36.818Z,977.00
2018-09-18T02:44:37.063Z,976.98
2018-09-18T02:45:37.297Z,976.98
2018-09-18T02:46:37.537Z,976.94
2018-09-18T02:47:37.773Z,976.96
2018-09-18T02:48:38.012Z,976.98
2018-09-18T02:49:38.252Z,976.93
2018-09-18T02:50:38.489Z,976.95
2018-09-18T02:51:38.729Z,976.96
2018-09-18T02:52:38.967Z,977.00
2018-09-18T02:53:39.204Z,976.97
2018-09-18T02:54:39.447Z,976.99
2018-09-18T02:55:39.682Z,976.96
2018-09-18T02:56:39.920Z,976.98
2018-09-18T02:57:40.159Z,976.96
2018-09-18T02:58:40.397Z,976.97
2018-09-18T02:59:40.635Z,976.95
2018-09-18T03:00:40.869Z,976.95
2018-09-18T03:01:41.110Z,976.98
2018-09-18T03:02:41.348Z,976.93
2018-09-18T03:03:41.589Z,976.92
2018-09-18T03:04:41.827Z,977.00
2018-09-18T03:05:42.065Z,976.93
2018-09-18T03:06:42.301Z,976.91
2018-09-18T03:07:42.537Z,976.95
2018-09-18T03:08:42.776Z,976.97
2018-09-18T03:09:43.023Z,976.96
2018-09-18T03:10:43.252Z,977.00
2018-09-18T03:11:43.490Z,976.96
2018-09-18T03:12:43.728Z,976.98
2018-09-18T03:13:43.967Z,976.97
2018-09-18T03:14:44.205Z,976.98
2018-09-18T03:15:44.448Z,976.97
2018-09-18T03:16:44.678Z,976.95
2018-09-18T03:17:44.917Z,976.93
2018-09-18T03:18:45.154Z,976.93
2018-09-18T03:19:45.397Z,976.96
2018-09-18T03:20:45.663Z,976.90
2018-09-18T03:21:45.879Z,976.87
2018-09-18T03:22:46.116Z,976.89
2018-09-18T03:23:46.352Z,976.90
2018-09-18T03:24:46.588Z,976.95
2018-09-18T03:25:46.827Z,976.92
2018-09-18T03:26:47.064Z,976.93
2018-09-18T03:27:47.299Z,976.90
2018-09-18T03:28:47.537Z,976.91
2018-09-18T03:29:47.776Z,976.91
2018-09-18T03:30:48.013Z,976.87
2018-09-18T03:31:48.249Z,976.88
2018-09-18T03:32:48.488Z,976.84
2018-09-18T03:33:48.725Z,976.79
2018-09-18T03:34:48.963Z,976.81
2018-09-18T03:35:49.346Z,976.82
2018-09-18T03:36:49.438Z,976.80
2018-09-18T03:37:49.679Z,976.78
2018-09-18T03:38:49.916Z,976.80
2018-09-18T03:39:50.154Z,976.81
2018-09-18T03:40:50.390Z,976.78
2018-09-18T03:41:50.627Z,976.79
2018-09-18T03:42:50.867Z,976.76
2018-09-18T03:43:51.103Z,976.79
2018-09-18T03:44:51.340Z,976.81
2018-09-18T03:45:51.585Z,976.80
2018-09-18T03:46:51.817Z,976.82
2018-09-18T03:47:52.053Z,976.86
2018-09-18T03:48:52.298Z,976.88
2018-09-18T03:49:52.528Z,976.84
2018-09-18T03:50:52.764Z,976.89
2018-09-18T03:51:53.001Z,976.88
2018-09-18T03:52:53.239Z,976.86
2018-09-18T03:53:53.474Z,976.86
2018-09-18T03:54:53.712Z,976.83
2018-09-18T03:55:53.949Z,976.82
2018-09-18T03:56:54.185Z,976.79
2018-09-18T03:57:54.424Z,976.77
2018-09-18T03:58:54.663Z,976.80
2018-09-18T03:59:54.899Z,976.82
2018-09-18T04:00:55.136Z,976.78
2018-09-18T04:01:55.373Z,976.77
2018-09-18T04:02:55.623Z,976.78
2018-09-18T04:03:55.850Z,976.75
2018-09-18T04:04:56.084Z,976.74
2018-09-18T04:05:56.323Z,976.75
2018-09-18T04:06:56.560Z,976.68
2018-09-18T04:07:56.795Z,976.71
2018-09-18T04:08:57.032Z,976.68
2018-09-18T04:09:57.272Z,976.70
2018-09-18T04:10:57.510Z,976.71
2018-09-18T04:11:57.747Z,976.73
2018-09-18T04:12:57.985Z,976.69
2018-09-18T04:13:58.221Z,976.71
2018-09-18T04:14:58.459Z,976.71
2018-09-18T04:15:58.696Z,976.71
2018-09-18T04:16:58.934Z,976.70
2018-09-18T04:17:59.171Z,976.72
2018-09-18T04:18:59.410Z,976.72
2018-09-18T04:19:59.645Z,976.73
2018-09-18T04:20:59.882Z,976.72
2018-09-18T04:22:00.121Z,976.74
2018-09-18T04:23:00.358Z,976.76
2018-09-18T04:24:00.597Z,976.77
2018-09-18T04:25:00.834Z,976.78
2018-09-18T04:26:01.069Z,976.75
2018-09-18T04:27:01.306Z,976.75
2018-09-18T04:28:01.544Z,976.77
2018-09-18T04:29:01.780Z,976.76
2018-09-18T04:30:02.018Z,976.78
2018-09-18T04:31:02.254Z,976.77
2018-09-18T04:32:02.493Z,976.83
2018-09-18T04:33:02.730Z,976.80
2018-09-18T04:34:02.968Z,976.82
2018-09-18T04:35:03.203Z,976.80
2018-09-18T04:36:03.439Z,976.82
2018-09-18T04:37:03.680Z,976.82
2018-09-18T04:38:03.914Z,976.81
2018-09-18T04:39:04.152Z,976.79
2018-09-18T04:40:04.387Z,976.81
2018-09-18T04:41:04.624Z,976.78
2018-09-18T04:42:04.866Z,976.81
2018-09-18T04:43:05.102Z,976.80
2018-09-18T04:44:05.340Z,976.77
2018-09-18T04:45:05.577Z,976.81
2018-09-18T04:46:05.828Z,976.84
2018-09-18T04:47:06.052Z,976.80
2018-09-18T04:48:06.289Z,976.82
2018-09-18T04:49:06.526Z,976.81
2018-09-18T04:50:06.768Z,976.78
2018-09-18T04:51:07.000Z,976.77
2018-09-18T04:52:07.236Z,976.76
2018-09-18T04:53:07.473Z,976.78
2018-09-18T04:54:07.710Z,976.81
2018-09-18T04:55:07.947Z,976.77
2018-09-18T04:56:08.185Z,976.77
2018-09-18T04:57:08.422Z,976.74
2018-09-18T04:58:08.658Z,976.75
2018-09-18T04:59:08.892Z,976.78
2018-09-18T05:00:09.134Z,976.79
2018-09-18T05:01:09.368Z,976.78
2018-09-18T05:02:09.637Z,976.79
2018-09-18T05:03:09.845Z,976.79
2018-09-18T05:04:10.081Z,976.80
2018-09-18T05:05:10.319Z,976.77
2018-09-18T05:06:10.557Z,976.78
2018-09-18T05:07:10.794Z,976.76
2018-09-18T05:08:11.031Z,976.74
2018-09-18T05:09:11.308Z,976.75
2018-09-18T05:10:11.507Z,976.72
2018-09-18T05:11:11.745Z,976.71
2018-09-18T05:12:11.981Z,976.74
2018-09-18T05:13:12.222Z,976.73
2018-09-18T05:14:12.457Z,976.77
2018-09-18T05:15:12.693Z,976.74
2018-09-18T05:16:12.931Z,976.73
2018-09-18T05:17:13.171Z,976.73
2018-09-18T05:18:13.404Z,976.71
2018-09-18T05:19:13.680Z,976.73
2018-09-18T05:20:13.891Z,976.71
2018-09-18T05:21:14.111Z,976.72
2018-09-18T05:22:14.349Z,976.71
2018-09-18T05:23:14.587Z,976.74
2018-09-18T05:24:14.822Z,976.73
2018-09-18T05:25:15.059Z,976.75
2018-09-18T05:26:15.297Z,976.70
2018-09-18T05:27:15.533Z,976.74
2018-09-18T05:28:15.767Z,976.74
2018-09-18T05:29:16.002Z,976.76
2018-09-18T05:30:16.243Z,976.74
2018-09-18T05:31:16.474Z,976.75
2018-09-18T05:32:16.713Z,976.75
2018-09-18T05:33:16.945Z,976.74
2018-09-18T05:34:17.182Z,976.77
2018-09-18T05:35:17.419Z,976.79
2018-09-18T05:36:17.655Z,976.79
2018-09-18T05:37:17.894Z,976.83
2018-09-18T05:38:18.133Z,976.80
2018-09-18T05:39:18.372Z,976.87
2018-09-18T05:40:18.607Z,976.82
2018-09-18T05:41:18.849Z,976.84
2018-09-18T05:42:19.085Z,976.88
2018-09-18T05:43:19.322Z,976.88
2018-09-18T05:44:19.558Z,976.85
2018-09-18T05:45:19.800Z,976.88
2018-09-18T05:46:20.038Z,976.89
2018-09-18T05:47:20.274Z,976.89
2018-09-18T05:48:20.512Z,976.91
2018-09-18T05:49:20.747Z,976.92
2018-09-18T05:50:20.988Z,976.94
2018-09-18T05:51:21.228Z,976.89
2018-09-18T05:52:21.465Z,976.92
2018-09-18T05:53:21.704Z,976.95
2018-09-18T05:54:21.947Z,976.95
2018-09-18T05:55:22.177Z,976.97
2018-09-18T05:56:22.416Z,976.97
2018-09-18T05:57:22.655Z,977.00
2018-09-18T05:58:22.894Z,976.99
2018-09-18T05:59:23.138Z,976.97
2018-09-18T06:00:23.377Z,976.95
2018-09-18T06:01:23.614Z,976.94
2018-09-18T06:02:23.918Z,976.98
2018-09-18T06:03:24.092Z,976.95
2018-09-18T06:04:24.333Z,976.96
2018-09-18T06:05:24.577Z,976.95
2018-09-18T06:06:24.810Z,977.00
2018-09-18T06:07:25.045Z,976.97
2018-09-18T06:08:25.285Z,976.96
2018-09-18T06:09:25.536Z,976.98
2018-09-18T06:10:25.762Z,977.01
2018-09-18T06:11:26.003Z,976.99
2018-09-18T06:12:26.256Z,977.04
2018-09-18T06:13:26.479Z,977.01
2018-09-18T06:14:26.718Z,977.01
2018-09-18T06:15:26.955Z,977.04
2018-09-18T06:16:27.195Z,977.08
2018-09-18T06:17:27.433Z,977.09
2018-09-18T06:18:27.673Z,977.05
2018-09-18T06:19:27.910Z,977.03
2018-09-18T06:20:28.149Z,977.04
2018-09-18T06:21:29.274Z,977.04
2018-09-18T06:22:28.595Z,977.05
2018-09-18T06:23:28.835Z,977.04
2018-09-18T06:24:29.071Z,977.02
2018-09-18T06:25:29.313Z,976.96
2018-09-18T06:26:29.549Z,976.99
2018-09-18T06:27:29.790Z,976.98
2018-09-18T06:28:30.028Z,976.97
2018-09-18T06:29:30.268Z,976.96
2018-09-18T06:30:30.512Z,976.97
2018-09-18T06:31:30.749Z,976.95
2018-09-18T06:32:30.990Z,976.96
2018-09-18T06:33:31.230Z,976.98
2018-09-18T06:34:31.469Z,976.99
2018-09-18T06:35:31.711Z,977.00
2018-09-18T06:36:31.954Z,977.00
2018-09-18T06:37:32.191Z,977.07
2018-09-18T06:38:32.434Z,977.08
2018-09-18T06:39:32.674Z,977.09
2018-09-18T06:40:32.917Z,977.12
2018-09-18T06:41:33.156Z,977.13
2018-09-18T06:42:33.400Z,977.10
2018-09-18T06:43:33.641Z,977.11
2018-09-18T06:44:33.882Z,977.12
2018-09-18T06:45:34.125Z,977.15
2018-09-18T06:46:34.368Z,977.16
2018-09-18T06:47:34.611Z,977.22
2018-09-18T06:48:34.856Z,977.24
2018-09-18T06:49:35.101Z,977.19
2018-09-18T06:50:35.345Z,977.25
2018-09-18T06:51:35.586Z,977.27
2018-09-18T06:52:35.829Z,977.26
2018-09-18T06:53:36.074Z,977.27
2018-09-18T06:54:36.338Z,977.23
2018-09-18T06:55:36.563Z,977.21
2018-09-18T06:56:36.808Z,977.28
2018-09-18T06:57:37.052Z,977.27
2018-09-18T06:58:37.297Z,977.26
2018-09-18T06:59:37.540Z,977.31
2018-09-18T07:00:37.787Z,977.29
2018-09-18T07:01:38.030Z,977.33
2018-09-18T07:02:38.274Z,977.27
2018-09-18T07:03:38.522Z,977.27
2018-09-18T07:04:38.779Z,977.26
2018-09-18T07:05:39.014Z,977.33
2018-09-18T07:06:39.257Z,977.35
2018-09-18T07:07:39.500Z,977.34
2018-09-18T07:08:39.747Z,977.33
2018-09-18T07:09:39.992Z,977.34
2018-09-18T07:10:40.239Z,977.33
2018-09-18T07:11:40.486Z,977.35
2018-09-18T07:12:40.730Z,977.34
2018-09-18T07:13:40.975Z,977.33
2018-09-18T07:14:41.220Z,977.30
2018-09-18T07:15:41.469Z,977.30
2018-09-18T07:16:41.710Z,977.34
2018-09-18T07:17:41.955Z,977.33
2018-09-18T07:18:42.204Z,977.34
2018-09-18T07:19:42.446Z,977.33
2018-09-18T07:20:42.691Z,977.34
2018-09-18T07:21:42.938Z,977.32
2018-09-18T07:22:43.184Z,977.31
2018-09-18T07:23:43.432Z,977.33
2018-09-18T07:24:43.698Z,977.33
2018-09-18T07:25:43.923Z,977.34
2018-09-18T07:26:44.170Z,977.39
2018-09-18T07:27:44.417Z,977.41
2018-09-18T07:28:44.665Z,977.43
2018-09-18T07:29:44.913Z,977.43
2018-09-18T07:30:45.160Z,977.49
2018-09-18T07:31:45.408Z,977.45
2018-09-18T07:32:45.660Z,977.45
2018-09-18T07:33:45.958Z,977.50
2018-09-18T07:34:46.151Z,977.57
2018-09-18T07:35:46.397Z,977.56
2018-09-18T07:36:46.647Z,977.54
2018-09-18T07:37:46.894Z,977.58
2018-09-18T07:38:47.139Z,977.57
2018-09-18T07:39:47.386Z,977.63
2018-09-18T07:40:47.636Z,977.60
2018-09-18T07:41:47.887Z,977.58
2018-09-18T07:42:48.137Z,977.61
2018-09-18T07:43:48.387Z,977.63
2018-09-18T07:44:48.637Z,977.61
2018-09-18T07:45:48.884Z,977.64
2018-09-18T07:46:49.134Z,977.59
2018-09-18T07:47:49.381Z,977.60
2018-09-18T07:48:49.634Z,977.64
2018-09-18T07:49:49.884Z,977.65
2018-09-18T07:50:50.140Z,977.66
2018-09-18T07:51:50.385Z,977.66
2018-09-18T07:52:50.636Z,977.69
2018-09-18T07:53:50.887Z,977.68
2018-09-18T07:54:51.136Z,977.76
2018-09-18T07:55:51.390Z,977.72
2018-09-18T07:56:51.638Z,977.69
2018-09-18T07:57:51.890Z,977.72
2018-09-18T07:58:52.140Z,977.66
2018-09-18T07:59:52.391Z,977.67
2018-09-18T08:00:52.645Z,977.69
2018-09-18T08:01:52.894Z,977.73
2018-09-18T08:02:53.146Z,977.70
2018-09-18T08:03:53.402Z,977.70
2018-09-18T08:04:53.653Z,977.76
2018-09-18T08:05:53.904Z,977.77
2018-09-18T08:06:54.157Z,977.84
2018-09-18T08:07:54.410Z,977.87
2018-09-18T08:08:54.663Z,977.86
2018-09-18T08:09:54.911Z,977.87
2018-09-18T08:10:55.298Z,977.87
2018-09-18T08:11:55.414Z,977.84
2018-09-18T08:12:55.665Z,977.84
2018-09-18T08:13:55.917Z,977.82
2018-09-18T08:14:56.170Z,977.77
2018-09-18T08:15:56.422Z,977.80
2018-09-18T08:16:56.674Z,977.80
2018-09-18T08:17:56.927Z,977.74
2018-09-18T08:18:57.284Z,977.79
2018-09-18T08:19:57.432Z,977.82
2018-09-18T08:20:57.686Z,977.80
2018-09-18T08:21:57.989Z,977.87
2018-09-18T08:22:58.194Z,977.89
2018-09-18T08:23:58.454Z,977.86
2018-09-18T08:24:58.762Z,977.92
2018-09-18T08:25:58.958Z,977.95
2018-09-18T08:26:59.215Z,977.95
2018-09-18T08:27:59.469Z,977.94
2018-09-18T08:28:59.720Z,977.94
2018-09-18T08:29:59.975Z,977.97
2018-09-18T08:31:00.232Z,977.94
2018-09-18T08:32:00.487Z,977.92
2018-09-18T08:33:00.819Z,977.91
2018-09-18T08:34:00.995Z,977.92
2018-09-18T08:35:01.251Z,977.95
2018-09-18T08:36:01.507Z,977.90
2018-09-18T08:37:01.762Z,977.91
2018-09-18T08:38:02.018Z,977.96
2018-09-18T08:39:02.286Z,977.96
2018-09-18T08:40:02.680Z,978.00
2018-09-18T08:41:02.782Z,977.97
2018-09-18T08:42:03.055Z,978.02
2018-09-18T08:43:03.290Z,978.02
2018-09-18T08:44:03.545Z,978.16
2018-09-18T08:45:03.805Z,978.58
2018-09-18T08:46:04.047Z,978.81
2018-09-18T08:47:04.301Z,978.97
2018-09-18T08:48:04.562Z,979.06
2018-09-18T08:49:04.803Z,979.10
2018-09-18T08:50:05.057Z,979.11
2018-09-18T08:51:05.341Z,979.15
2018-09-18T08:52:05.746Z,979.13
2018-09-18T08:53:05.830Z,979.12
2018-09-18T08:54:06.077Z,979.04
2018-09-18T08:55:06.325Z,978.99
2018-09-18T08:56:06.587Z,978.99
2018-09-18T08:57:06.835Z,978.97
2018-09-18T08:58:07.088Z,978.89
2018-09-18T08:59:07.342Z,978.78
2018-09-18T09:00:07.595Z,978.75
2018-09-18T09:01:07.904Z,978.73
2018-09-18T09:02:08.126Z,978.64
2018-09-18T09:03:08.359Z,978.64
2018-09-18T09:04:08.619Z,978.60
2018-09-18T09:05:08.944Z,978.58
2018-09-18T09:06:09.195Z,978.53
2018-09-18T09:07:09.401Z,978.52
2018-09-18T09:08:09.753Z,978.49
2018-09-18T09:09:09.912Z,978.44
2018-09-18T09:10:10.151Z,978.39
2018-09-18T09:11:10.411Z,978.33
2018-09-18T09:12:10.675Z,978.27
2018-09-18T09:13:10.931Z,978.28
2018-09-18T09:14:11.160Z,978.25
2018-09-18T09:15:11.484Z,978.22
2018-09-18T09:16:11.689Z,978.21
2018-09-18T09:17:11.927Z,978.20
2018-09-18T09:18:12.250Z,978.21
2018-09-18T09:19:12.451Z,978.22
2018-09-18T09:20:12.679Z,978.20
2018-09-18T09:21:13.002Z,978.23
2018-09-18T09:22:13.254Z,978.37
2018-09-18T09:23:13.438Z,978.33
2018-09-18T09:24:13.694Z,978.31
2018-09-18T09:25:13.947Z,978.37
2018-09-18T09:26:14.214Z,978.49
2018-09-18T09:27:14.452Z,978.46
2018-09-18T09:28:14.712Z,978.48
2018-09-18T09:29:14.992Z,978.53
2018-09-18T09:30:15.210Z,978.48
2018-09-18T09:31:15.464Z,978.63
2018-09-18T09:32:15.816Z,978.58
2018-09-18T09:33:15.982Z,978.61
2018-09-18T09:34:16.219Z,978.50
2018-09-18T09:35:16.488Z,978.50
2018-09-18T09:36:16.744Z,978.53
2018-09-18T09:37:17.093Z,978.44
2018-09-18T09:38:17.255Z,978.43
2018-09-18T09:39:17.510Z,978.40
2018-09-18T09:40:17.765Z,978.42
2018-09-18T09:41:18.018Z,978.43
2018-09-18T09:42:18.272Z,978.41
2018-09-18T09:43:18.528Z,978.29
2018-09-18T09:44:18.796Z,978.31
2018-09-18T09:45:19.034Z,978.33
2018-09-18T09:46:19.287Z,978.29
2018-09-18T09:47:19.543Z,978.29
2018-09-18T09:48:19.796Z,978.25
2018-09-18T09:49:20.050Z,978.21
2018-09-18T09:50:20.304Z,978.19
2018-09-18T09:51:20.663Z,978.24
2018-09-18T09:52:20.811Z,978.26
2018-09-18T09:53:21.066Z,978.24
2018-09-18T09:54:21.322Z,978.25
2018-09-18T09:55:21.576Z,978.29
2018-09-18T09:56:21.830Z,978.18
2018-09-18T09:57:22.085Z,978.21
2018-09-18T09:58:22.341Z,978.22
2018-09-18T09:59:22.595Z,978.25
2018-09-18T10:00:22.849Z,978.27
2018-09-18T10:01:23.103Z,978.26
2018-09-18T10:02:23.357Z,978.23
2018-09-18T10:03:23.610Z,978.14
2018-09-18T10:04:23.865Z,978.02
2018-09-18T10:05:24.121Z,977.81
2018-09-18T10:06:24.374Z,977.71
2018-09-18T10:07:24.628Z,977.68
2018-09-18T10:08:24.881Z,977.64
2018-09-18T10:09:25.137Z,977.62
2018-09-18T10:10:25.411Z,977.64
2018-09-18T10:11:25.646Z,977.58
2018-09-18T10:12:25.902Z,977.59
2018-09-18T10:13:26.141Z,977.54
2018-09-18T10:14:26.406Z,977.57
2018-09-18T10:15:26.653Z,977.56
2018-09-18T10:16:26.907Z,977.57
2018-09-18T10:17:27.161Z,977.59
2018-09-18T10:18:27.417Z,977.65
2018-09-18T10:19:27.673Z,977.64
2018-09-18T10:20:27.926Z,977.59
2018-09-18T10:21:28.182Z,977.55
2018-09-18T10:22:28.436Z,977.53
2018-09-18T10:23:28.690Z,977.50
2018-09-18T10:24:28.959Z,977.60
2018-09-18T10:25:29.200Z,977.63
2018-09-18T10:26:29.456Z,977.62
2018-09-18T10:27:29.722Z,977.72
2018-09-18T10:28:29.984Z,977.70
2018-09-18T10:29:30.233Z,977.66
2018-09-18T10:30:30.492Z,978.00
2018-09-18T10:31:30.726Z,978.34
2018-09-18T10:32:31.024Z,978.39
2018-09-18T10:33:31.239Z,978.44
2018-09-18T10:34:31.489Z,978.34
2018-09-18T10:35:31.743Z,978.41
2018-09-18T10:36:32.014Z,978.38
2018-09-18T10:37:32.258Z,978.39
2018-09-18T10:38:32.513Z,978.38
2018-09-18T10:39:32.793Z,978.38
2018-09-18T10:40:33.022Z,978.30
2018-09-18T10:41:33.380Z,978.32
2018-09-18T10:42:33.557Z,978.32
2018-09-18T10:43:33.789Z,978.29
2018-09-18T10:44:34.048Z,978.26
2018-09-18T10:45:34.306Z,978.27
2018-09-18T10:46:34.554Z,978.21
2018-09-18T10:47:34.828Z,978.22
2018-09-18T10:48:35.067Z,978.26
2018-09-18T10:49:35.337Z,978.15
2018-09-18T10:50:35.581Z,978.17
2018-09-18T10:51:35.835Z,978.08
2018-09-18T10:52:36.092Z,977.99
2018-09-18T10:53:36.347Z,978.00
2018-09-18T10:54:36.602Z,978.04
2018-09-18T10:55:36.858Z,978.03
2018-09-18T10:56:37.115Z,978.00
2018-09-18T10:57:37.370Z,977.99
2018-09-18T10:58:37.630Z,977.99
2018-09-18T10:59:37.883Z,977.92
2018-09-18T11:00:38.164Z,977.88
2018-09-18T11:01:38.401Z,977.86
2018-09-18T11:02:38.649Z,977.83
2018-09-18T11:03:38.913Z,977.90
2018-09-18T11:04:39.178Z,977.86
2018-09-18T11:05:39.417Z,977.78
2018-09-18T11:06:39.672Z,977.74
2018-09-18T11:07:39.971Z,977.78
2018-09-18T11:08:40.186Z,977.80
2018-09-18T11:09:40.513Z,977.78
2018-09-18T11:10:40.705Z,977.77
2018-09-18T11:11:40.954Z,977.74
2018-09-18T11:12:41.208Z,977.69
2018-09-18T11:13:41.464Z,977.65
2018-09-18T11:14:41.821Z,977.60
2018-09-18T11:15:41.993Z,977.53
2018-09-18T11:16:42.336Z,977.41
2018-09-18T11:17:42.515Z,977.47
2018-09-18T11:18:42.782Z,977.38
2018-09-18T11:19:43.033Z,977.32
2018-09-18T11:20:43.333Z,977.17
2018-09-18T11:21:43.591Z,977.04
2018-09-18T11:22:43.779Z,977.08
2018-09-18T11:23:44.064Z,977.13
2018-09-18T11:24:44.411Z,977.27
2018-09-18T11:25:44.572Z,977.26
2018-09-18T11:26:44.804Z,977.25
2018-09-18T11:27:45.082Z,977.30
2018-09-18T11:28:45.317Z,977.37
2018-09-18T11:29:45.576Z,977.47
2018-09-18T11:30:45.872Z,977.58
2018-09-18T11:31:46.086Z,977.47
2018-09-18T11:32:46.400Z,977.11
2018-09-18T11:33:46.601Z,976.86
2018-09-18T11:34:46.860Z,976.78
2018-09-18T11:35:47.115Z,976.75
2018-09-18T11:36:47.374Z,976.76
2018-09-18T11:37:47.627Z,976.78
2018-09-18T11:38:47.888Z,976.86
2018-09-18T11:39:48.142Z,976.82
2018-09-18T11:40:48.400Z,976.77
2018-09-18T11:41:48.713Z,976.75
2018-09-18T11:42:48.917Z,976.81
2018-09-18T11:43:49.174Z,976.85
2018-09-18T11:44:49.431Z,976.82
2018-09-18T11:45:49.805Z,976.82
2018-09-18T11:46:49.992Z,976.80
2018-09-18T11:47:50.200Z,976.76
2018-09-18T11:48:50.461Z,976.79
2018-09-18T11:49:50.716Z,976.77
2018-09-18T11:50:50.972Z,976.75
2018-09-18T11:51:51.230Z,976.76
2018-09-18T11:52:51.513Z,976.73
2018-09-18T11:53:51.738Z,976.75
2018-09-18T11:54:51.997Z,976.70
2018-09-18T11:55:52.255Z,976.57
2018-09-18T11:56:52.526Z,976.67
2018-09-18T11:57:52.776Z,976.66
2018-09-18T11:58:53.030Z,976.63
2018-09-18T11:59:53.287Z,976.63
2018-09-18T12:00:53.545Z,976.63
2018-09-18T12:01:53.797Z,976.60
2018-09-18T12:02:54.090Z,976.66
2018-09-18T12:03:54.313Z,976.65
2018-09-18T12:04:54.617Z,976.70
2018-09-18T12:05:54.826Z,976.69
2018-09-18T12:06:55.084Z,976.64
2018-09-18T12:07:55.340Z,976.68
2018-09-18T12:08:55.608Z,976.65
2018-09-18T12:09:55.856Z,976.65
2018-09-18T12:10:56.113Z,976.53
2018-09-18T12:11:56.371Z,976.65
2018-09-18T12:12:56.627Z,976.50
2018-09-18T12:13:56.882Z,976.61
2018-09-18T12:14:57.138Z,976.57
2018-09-18T12:15:57.396Z,976.60
2018-09-18T12:16:57.712Z,976.58
2018-09-18T12:17:57.908Z,976.54
2018-09-18T12:18:58.164Z,976.50
2018-09-18T12:19:58.420Z,976.49
2018-09-18T12:20:58.678Z,976.38
2018-09-18T12:21:58.934Z,976.40
2018-09-18T12:22:59.193Z,976.38
2018-09-18T12:23:59.448Z,976.39
2018-09-18T12:24:59.705Z,976.39
2018-09-18T12:25:59.962Z,976.39
2018-09-18T12:27:00.218Z,976.36
2018-09-18T12:28:00.471Z,976.37
2018-09-18T12:29:00.729Z,976.34
2018-09-18T12:30:00.987Z,976.38
2018-09-18T12:31:01.241Z,976.30
2018-09-18T12:32:01.496Z,976.27